Shirahamamaru — JG4872 — position and weather

sailwx.info

Track history (hours):
 
Tides and Currents Weather Stations Pressure Air Temp Water Temp Dewpoint Dewpoint Depression Visibility Wind Speed Wind Dir Waves Ship Positions

Shirahamamaru

Last reported at 2015-May-24 11:13 UTC. Time now 2015-May-24 19:18 UTC.
Position N 35°13' E 139°43'.

Length 79 m; draft 3.2 m.

Type: Passenger vessel. MMSI: 431000239.

Date/timePositionNaut miles runAvg speedWind from/ knotsBaromVisibWave heightAir tempDewpointWater temp
2015-May-24 11:13N 35°13' E 139°43'6 8.7
2015-May-24 10:33N 35°10' E 139°49'3 3.1
2015-May-24 09:33N 35°12' E 139°46'1 1.3
2015-May-24 08:34N 35°11' E 139°47'3 2.6
2015-May-24 07:32N 35°13' E 139°44'3 2.6
2015-May-24 06:34N 35°12' E 139°47'2 2.4
2015-May-24 05:33N 35°13' E 139°45'2 1.6
2015-May-24 04:33N 35°12' E 139°46'1 0.5
2015-May-24 03:34N 35°12' E 139°46'1 1.3
2015-May-24 02:33N 35°11' E 139°47'2 2.2
2015-May-24 01:33N 35°13' E 139°45'2 2.2
2015-May-24 00:33N 35°11' E 139°47'3 2.6
2015-May-23 23:33N 35°13' E 139°44'2 1.6
2015-May-23 22:33N 35°12' E 139°46'1 1.4
2015-May-23 21:33N 35°13' E 139°45'2 1.5
2015-May-23 20:33N 35°13' E 139°43'0 0.0
2015-May-23 11:08N 35°13' E 139°43'6 9.8
2015-May-23 10:33N 35°10' E 139°49'3 3.3
2015-May-23 09:34N 35°13' E 139°46'1 1.4
2015-May-23 08:34N 35°12' E 139°47'3 2.6
2015-May-23 07:33N 35°13' E 139°45'3 2.6
2015-May-23 06:33N 35°12' E 139°47'3 2.5
2015-May-23 05:33N 35°13' E 139°44'2 1.7
2015-May-23 04:33N 35°12' E 139°46'1 0.8
2015-May-23 03:33N 35°12' E 139°45'1 1.5
2015-May-23 02:34N 35°11' E 139°47'2 2.2
2015-May-23 01:33N 35°13' E 139°45'2 2.4
2015-May-23 00:33N 35°11' E 139°47'3 2.6
2015-May-22 23:33N 35°13' E 139°44'2 1.6
2015-May-22 22:33N 35°12' E 139°46'2 1.7
2015-May-22 21:33N 35°13' E 139°44'1 1.3
2015-May-22 20:33N 35°13' E 139°43'0 0.0
2015-May-22 11:08N 35°13' E 139°43'610.0
2015-May-22 10:33N 35°10' E 139°49'3 3.3
2015-May-22 09:33N 35°12' E 139°46'1 1.4
2015-May-22 08:33N 35°12' E 139°47'2 2.5
2015-May-22 07:33N 35°13' E 139°45'2 2.3
2015-May-22 06:33N 35°11' E 139°47'2 2.2
2015-May-22 05:33N 35°10' E 139°49'6 5.8
2015-May-22 04:33N 35°13' E 139°43'0 0.2
2015-May-22 03:33N 35°13' E 139°43'6 5.8
2015-May-22 02:33N 35°10' E 139°49'4 4.5
2015-May-22 01:33N 35°13' E 139°45'3 2.6
2015-May-22 00:33N 35°11' E 139°47'2 2.5
2015-May-21 23:33N 35°13' E 139°45'1 1.3
2015-May-21 22:33N 35°12' E 139°46'1 1.4
2015-May-21 21:33N 35°13' E 139°45'1 0.1
2015-May-21 11:13N 35°13' E 139°43'6 8.6
2015-May-21 10:33N 35°10' E 139°49'3 2.9
2015-May-21 09:33N 35°12' E 139°46'1 1.0
2015-May-21 08:33N 35°12' E 139°47'2 1.9
2015-May-21 07:33N 35°13' E 139°45'2 2.0
2015-May-21 06:33N 35°11' E 139°47'2 2.1
2015-May-21 05:33N 35°10' E 139°49'6 5.5
2015-May-21 04:29N 35°13' E 139°43'0 0.3
2015-May-21 03:33N 35°13' E 139°43'6 5.6
2015-May-21 02:32N 35°10' E 139°49'4 4.4
2015-May-21 01:33N 35°13' E 139°45'2 2.4
2015-May-21 00:33N 35°11' E 139°47'2 2.4
2015-May-20 23:33N 35°13' E 139°45'1 1.4
2015-May-20 22:33N 35°12' E 139°46'1 1.3
2015-May-20 21:33N 35°13' E 139°45'2 0.2
2015-May-20 11:14N 35°13' E 139°43'6 8.3
2015-May-20 10:33N 35°10' E 139°49'3 3.1
2015-May-20 09:33N 35°12' E 139°46'1 1.1
2015-May-20 08:33N 35°12' E 139°47'2 2.1
2015-May-20 07:33N 35°13' E 139°45'2 2.1
2015-May-20 06:33N 35°12' E 139°47'2 2.1
2015-May-20 05:33N 35°10' E 139°49'6 5.9
2015-May-20 04:33N 35°13' E 139°43'1 0.6
2015-May-20 03:33N 35°13' E 139°44'5 5.4
2015-May-20 02:33N 35°10' E 139°49'4 4.4
2015-May-20 01:33N 35°13' E 139°45'2 2.2
2015-May-20 00:33N 35°11' E 139°47'2 2.3
2015-May-19 23:33N 35°13' E 139°44'2 1.6
2015-May-19 22:33N 35°12' E 139°46'1 1.4
2015-May-19 21:33N 35°13' E 139°45'2 1.6
2015-May-19 20:33N 35°13' E 139°43'0 0.0
2015-May-19 11:07N 35°13' E 139°43'610.3
2015-May-19 10:34N 35°10' E 139°49'4 3.5
2015-May-19 09:33N 35°13' E 139°46'1 1.5
2015-May-19 08:34N 35°12' E 139°47'2 2.2
2015-May-19 07:34N 35°13' E 139°45'2 2.4
2015-May-19 06:34N 35°12' E 139°47'2 2.0
2015-May-19 05:32N 35°10' E 139°49'6 5.9
2015-May-19 04:33N 35°13' E 139°43'0 0.2
2015-May-19 03:34N 35°13' E 139°43'6 5.9
2015-May-19 02:33N 35°10' E 139°49'4 4.3
2015-May-19 01:34N 35°13' E 139°45'2 2.4
2015-May-19 00:34N 35°11' E 139°47'2 2.4
2015-May-18 23:34N 35°13' E 139°45'1 1.3
2015-May-18 22:33N 35°12' E 139°46'1 1.3
2015-May-18 21:33N 35°13' E 139°45'1 1.5
2015-May-18 20:34N 35°13' E 139°43'0 0.0
2015-May-18 11:08N 35°13' E 139°43'6 9.8
2015-May-18 10:34N 35°10' E 139°49'3 3.1
2015-May-18 09:34N 35°12' E 139°46'1 1.2
2015-May-18 08:33N 35°12' E 139°47'2 2.2
2015-May-18 07:33N 35°13' E 139°45'2 2.1
2015-May-18 06:34N 35°12' E 139°47'2 2.2
2015-May-18 05:32N 35°10' E 139°49'6 6.0
2015-May-18 04:34N 35°13' E 139°43'0 0.4
2015-May-18 03:33N 35°13' E 139°43'6 5.7
2015-May-18 02:34N 35°10' E 139°49'4 4.3
2015-May-18 01:33N 35°13' E 139°45'2 2.3
2015-May-18 00:33N 35°12' E 139°47'3 2.5
2015-May-17 23:32N 35°13' E 139°44'2 1.6
2015-May-17 22:33N 35°12' E 139°46'2 1.5
2015-May-17 21:31N 35°13' E 139°44'1 0.1
2015-May-17 11:16N 35°13' E 139°43'6 8.1
2015-May-17 10:33N 35°10' E 139°49'3 3.0
2015-May-17 09:33N 35°12' E 139°46'1 1.3
2015-May-17 08:33N 35°11' E 139°47'3 2.5
2015-May-17 07:31N 35°13' E 139°45'3 3.4
2015-May-17 06:33N 35°11' E 139°48'3 3.2
2015-May-17 05:33N 35°13' E 139°45'1 1.5
2015-May-17 04:33N 35°12' E 139°46'1 0.6
2015-May-17 03:33N 35°12' E 139°46'1 1.4
2015-May-17 02:33N 35°11' E 139°47'3 2.5
2015-May-17 01:32N 35°13' E 139°44'3 2.8
2015-May-17 00:33N 35°11' E 139°47'2 2.4
2015-May-16 23:33N 35°13' E 139°45'1 1.3
2015-May-16 22:33N 35°12' E 139°46'1 1.2
2015-May-16 21:32N 35°13' E 139°45'2 0.2
2015-May-16 11:14N 35°13' E 139°43'6 8.6
2015-May-16 10:33N 35°10' E 139°49'3 3.1
2015-May-16 09:33N 35°12' E 139°46'1 1.4
2015-May-16 08:33N 35°11' E 139°47'2 2.1
2015-May-16 07:34N 35°13' E 139°45'2 2.1
2015-May-16 06:33N 35°11' E 139°47'3 2.6
2015-May-16 05:32N 35°13' E 139°44'1 1.5
2015-May-16 04:33N 35°12' E 139°46'0 0.4
2015-May-16 03:33N 35°12' E 139°45'2 1.7
2015-May-16 02:33N 35°12' E 139°47'3 3.2
2015-May-16 01:29N 35°13' E 139°44'3 3.5
2015-May-16 00:33N 35°11' E 139°47'2 2.4
2015-May-15 23:33N 35°13' E 139°45'1 1.4
2015-May-15 22:34N 35°12' E 139°46'1 1.4
2015-May-15 21:33N 35°13' E 139°45'2 0.1
2015-May-15 11:08N 35°13' E 139°43'6 9.8
2015-May-15 10:34N 35°10' E 139°49'3 2.9
2015-May-15 09:34N 35°12' E 139°46'1 0.9
2015-May-15 08:34N 35°12' E 139°47'2 1.7
2015-May-15 07:34N 35°12' E 139°45'2 1.8
2015-May-15 06:34N 35°12' E 139°47'2 2.2
2015-May-15 05:33N 35°10' E 139°49'6 5.8
2015-May-15 04:33N 35°13' E 139°43'0 0.2
2015-May-15 03:33N 35°13' E 139°43'6 5.9
2015-May-15 02:33N 35°10' E 139°49'4 4.2
2015-May-15 01:34N 35°13' E 139°45'2 2.1
2015-May-15 00:33N 35°11' E 139°47'2 2.3
2015-May-14 23:34N 35°13' E 139°45'2 2.0
2015-May-14 22:34N 35°11' E 139°46'2 1.7
2015-May-14 21:34N 35°12' E 139°45'  
Track history (hours):
 
Tides and Currents Weather Stations Pressure Air Temp Water Temp Dewpoint Dewpoint Depression Visibility Wind Speed Wind Dir Waves Ship Positions

Shirahamamaru

Last reported at 2015-May-24 11:13 UTC. Time now 2015-May-24 19:18 UTC.
Position N 35°13' E 139°43'.

Length 79 m; draft 3.2 m.

Type: Passenger vessel. MMSI: 431000239.

Date/timePositionNaut miles runAvg speedWind from/ knotsBaromVisibWave heightAir tempDewpointWater temp
2015-May-24 11:13N 35°13' E 139°43'6 8.7
2015-May-24 10:33N 35°10' E 139°49'3 3.1
2015-May-24 09:33N 35°12' E 139°46'1 1.3
2015-May-24 08:34N 35°11' E 139°47'3 2.6
2015-May-24 07:32N 35°13' E 139°44'3 2.6
2015-May-24 06:34N 35°12' E 139°47'2 2.4
2015-May-24 05:33N 35°13' E 139°45'2 1.6
2015-May-24 04:33N 35°12' E 139°46'1 0.5
2015-May-24 03:34N 35°12' E 139°46'1 1.3
2015-May-24 02:33N 35°11' E 139°47'2 2.2
2015-May-24 01:33N 35°13' E 139°45'2 2.2
2015-May-24 00:33N 35°11' E 139°47'3 2.6
2015-May-23 23:33N 35°13' E 139°44'2 1.6
2015-May-23 22:33N 35°12' E 139°46'1 1.4
2015-May-23 21:33N 35°13' E 139°45'2 1.5
2015-May-23 20:33N 35°13' E 139°43'0 0.0
2015-May-23 11:08N 35°13' E 139°43'6 9.8
2015-May-23 10:33N 35°10' E 139°49'3 3.3
2015-May-23 09:34N 35°13' E 139°46'1 1.4
2015-May-23 08:34N 35°12' E 139°47'3 2.6
2015-May-23 07:33N 35°13' E 139°45'3 2.6
2015-May-23 06:33N 35°12' E 139°47'3 2.5
2015-May-23 05:33N 35°13' E 139°44'2 1.7
2015-May-23 04:33N 35°12' E 139°46'1 0.8
2015-May-23 03:33N 35°12' E 139°45'1 1.5
2015-May-23 02:34N 35°11' E 139°47'2 2.2
2015-May-23 01:33N 35°13' E 139°45'2 2.4
2015-May-23 00:33N 35°11' E 139°47'3 2.6
2015-May-22 23:33N 35°13' E 139°44'2 1.6
2015-May-22 22:33N 35°12' E 139°46'2 1.7
2015-May-22 21:33N 35°13' E 139°44'1 1.3
2015-May-22 20:33N 35°13' E 139°43'0 0.0
2015-May-22 11:08N 35°13' E 139°43'610.0
2015-May-22 10:33N 35°10' E 139°49'3 3.3
2015-May-22 09:33N 35°12' E 139°46'1 1.4
2015-May-22 08:33N 35°12' E 139°47'2 2.5
2015-May-22 07:33N 35°13' E 139°45'2 2.3
2015-May-22 06:33N 35°11' E 139°47'2 2.2
2015-May-22 05:33N 35°10' E 139°49'6 5.8
2015-May-22 04:33N 35°13' E 139°43'0 0.2
2015-May-22 03:33N 35°13' E 139°43'6 5.8
2015-May-22 02:33N 35°10' E 139°49'4 4.5
2015-May-22 01:33N 35°13' E 139°45'3 2.6
2015-May-22 00:33N 35°11' E 139°47'2 2.5
2015-May-21 23:33N 35°13' E 139°45'1 1.3
2015-May-21 22:33N 35°12' E 139°46'1 1.4
2015-May-21 21:33N 35°13' E 139°45'1 0.1
2015-May-21 11:13N 35°13' E 139°43'6 8.6
2015-May-21 10:33N 35°10' E 139°49'3 2.9
2015-May-21 09:33N 35°12' E 139°46'1 1.0
2015-May-21 08:33N 35°12' E 139°47'2 1.9
2015-May-21 07:33N 35°13' E 139°45'2 2.0
2015-May-21 06:33N 35°11' E 139°47'2 2.1
2015-May-21 05:33N 35°10' E 139°49'6 5.5
2015-May-21 04:29N 35°13' E 139°43'0 0.3
2015-May-21 03:33N 35°13' E 139°43'6 5.6
2015-May-21 02:32N 35°10' E 139°49'4 4.4
2015-May-21 01:33N 35°13' E 139°45'2 2.4
2015-May-21 00:33N 35°11' E 139°47'2 2.4
2015-May-20 23:33N 35°13' E 139°45'1 1.4
2015-May-20 22:33N 35°12' E 139°46'1 1.3
2015-May-20 21:33N 35°13' E 139°45'2 0.2
2015-May-20 11:14N 35°13' E 139°43'6 8.3
2015-May-20 10:33N 35°10' E 139°49'3 3.1
2015-May-20 09:33N 35°12' E 139°46'1 1.1
2015-May-20 08:33N 35°12' E 139°47'2 2.1
2015-May-20 07:33N 35°13' E 139°45'2 2.1
2015-May-20 06:33N 35°12' E 139°47'2 2.1
2015-May-20 05:33N 35°10' E 139°49'6 5.9
2015-May-20 04:33N 35°13' E 139°43'1 0.6
2015-May-20 03:33N 35°13' E 139°44'5 5.4
2015-May-20 02:33N 35°10' E 139°49'4 4.4
2015-May-20 01:33N 35°13' E 139°45'2 2.2
2015-May-20 00:33N 35°11' E 139°47'2 2.3
2015-May-19 23:33N 35°13' E 139°44'2 1.6
2015-May-19 22:33N 35°12' E 139°46'1 1.4
2015-May-19 21:33N 35°13' E 139°45'2 1.6
2015-May-19 20:33N 35°13' E 139°43'0 0.0
2015-May-19 11:07N 35°13' E 139°43'610.3
2015-May-19 10:34N 35°10' E 139°49'4 3.5
2015-May-19 09:33N 35°13' E 139°46'1 1.5
2015-May-19 08:34N 35°12' E 139°47'2 2.2
2015-May-19 07:34N 35°13' E 139°45'2 2.4
2015-May-19 06:34N 35°12' E 139°47'2 2.0
2015-May-19 05:32N 35°10' E 139°49'6 5.9
2015-May-19 04:33N 35°13' E 139°43'0 0.2
2015-May-19 03:34N 35°13' E 139°43'6 5.9
2015-May-19 02:33N 35°10' E 139°49'4 4.3
2015-May-19 01:34N 35°13' E 139°45'2 2.4
2015-May-19 00:34N 35°11' E 139°47'2 2.4
2015-May-18 23:34N 35°13' E 139°45'1 1.3
2015-May-18 22:33N 35°12' E 139°46'1 1.3
2015-May-18 21:33N 35°13' E 139°45'1 1.5
2015-May-18 20:34N 35°13' E 139°43'0 0.0
2015-May-18 11:08N 35°13' E 139°43'6 9.8
2015-May-18 10:34N 35°10' E 139°49'3 3.1
2015-May-18 09:34N 35°12' E 139°46'1 1.2
2015-May-18 08:33N 35°12' E 139°47'2 2.2
2015-May-18 07:33N 35°13' E 139°45'2 2.1
2015-May-18 06:34N 35°12' E 139°47'2 2.2
2015-May-18 05:32N 35°10' E 139°49'6 6.0
2015-May-18 04:34N 35°13' E 139°43'0 0.4
2015-May-18 03:33N 35°13' E 139°43'6 5.7
2015-May-18 02:34N 35°10' E 139°49'4 4.3
2015-May-18 01:33N 35°13' E 139°45'2 2.3
2015-May-18 00:33N 35°12' E 139°47'3 2.5
2015-May-17 23:32N 35°13' E 139°44'2 1.6
2015-May-17 22:33N 35°12' E 139°46'2 1.5
2015-May-17 21:31N 35°13' E 139°44'1 0.1
2015-May-17 11:16N 35°13' E 139°43'6 8.1
2015-May-17 10:33N 35°10' E 139°49'3 3.0
2015-May-17 09:33N 35°12' E 139°46'1 1.3
2015-May-17 08:33N 35°11' E 139°47'3 2.5
2015-May-17 07:31N 35°13' E 139°45'3 3.4
2015-May-17 06:33N 35°11' E 139°48'3 3.2
2015-May-17 05:33N 35°13' E 139°45'1 1.5
2015-May-17 04:33N 35°12' E 139°46'1 0.6
2015-May-17 03:33N 35°12' E 139°46'1 1.4
2015-May-17 02:33N 35°11' E 139°47'3 2.5
2015-May-17 01:32N 35°13' E 139°44'3 2.8
2015-May-17 00:33N 35°11' E 139°47'2 2.4
2015-May-16 23:33N 35°13' E 139°45'1 1.3
2015-May-16 22:33N 35°12' E 139°46'1 1.2
2015-May-16 21:32N 35°13' E 139°45'2 0.2
2015-May-16 11:14N 35°13' E 139°43'6 8.6
2015-May-16 10:33N 35°10' E 139°49'3 3.1
2015-May-16 09:33N 35°12' E 139°46'1 1.4
2015-May-16 08:33N 35°11' E 139°47'2 2.1
2015-May-16 07:34N 35°13' E 139°45'2 2.1
2015-May-16 06:33N 35°11' E 139°47'3 2.6
2015-May-16 05:32N 35°13' E 139°44'1 1.5
2015-May-16 04:33N 35°12' E 139°46'0 0.4
2015-May-16 03:33N 35°12' E 139°45'2 1.7
2015-May-16 02:33N 35°12' E 139°47'3 3.2
2015-May-16 01:29N 35°13' E 139°44'3 3.5
2015-May-16 00:33N 35°11' E 139°47'2 2.4
2015-May-15 23:33N 35°13' E 139°45'1 1.4
2015-May-15 22:34N 35°12' E 139°46'1 1.4
2015-May-15 21:33N 35°13' E 139°45'2 0.1
2015-May-15 11:08N 35°13' E 139°43'6 9.8
2015-May-15 10:34N 35°10' E 139°49'3 2.9
2015-May-15 09:34N 35°12' E 139°46'1 0.9
2015-May-15 08:34N 35°12' E 139°47'2 1.7
2015-May-15 07:34N 35°12' E 139°45'2 1.8
2015-May-15 06:34N 35°12' E 139°47'2 2.2
2015-May-15 05:33N 35°10' E 139°49'6 5.8
2015-May-15 04:33N 35°13' E 139°43'0 0.2
2015-May-15 03:33N 35°13' E 139°43'6 5.9
2015-May-15 02:33N 35°10' E 139°49'4 4.2
2015-May-15 01:34N 35°13' E 139°45'2 2.1
2015-May-15 00:33N 35°11' E 139°47'2 2.3
2015-May-14 23:34N 35°13' E 139°45'2 2.0
2015-May-14 22:34N 35°11' E 139°46'2 1.7
2015-May-14 21:34N 35°12' E 139°45'  

Dump ship's entire track history